Time;durP1;ratioP1;P1;durP2;ratioP2;P2;SDS_P1;SDS_P2;PMS_P1;PMS_P2;Temp;Humidity;BMP_temperature;BMP_pressure;BME280_temperature;BME280_humidity;BME280_pressure;Samples;Min_cycle;Max_cycle;Signal;HPM_P1;HPM_P2
2021/03/10 00:01:44;;;;;;;;;34.67;32.67;;;;;-0.89;47.89;102230.66;4869647;29;8992;-79
2021/03/10 00:04:12;;;;;;;;;27.67;27.67;;;;;-0.97;48.88;102225.47;4852382;29;8876;-80
2021/03/10 00:07:00;;;;;;;;;27.67;25.67;;;;;-1.20;48.93;102224.09;4863250;29;8864;-79
2021/03/10 00:09:30;;;;;;;;;20.33;20.33;;;;;-1.27;49.19;102223.28;4870652;29;8883;-79
2021/03/10 00:12:26;;;;;;;;;25.00;24.00;;;;;-1.30;49.40;102221.03;4872456;29;8907;-79
2021/03/10 00:14:54;;;;;;;;;15.33;13.67;;;;;-1.40;50.32;102221.44;4873765;29;8880;-80
2021/03/10 00:17:44;;;;;;;;;20.33;20.33;;;;;-1.23;49.63;102216.38;4868739;29;8889;-80
2021/03/10 00:20:39;;;;;;;;;28.67;26.00;;;;;-1.51;50.32;102213.16;4856903;29;8884;-80
2021/03/10 00:23:35;;;;;;;;;23.33;22.00;;;;;-1.40;50.43;102210.59;4857551;29;8886;-79
2021/03/10 00:26:31;;;;;;;;;24.33;21.00;;;;;-1.38;51.60;102214.97;4869154;29;8858;-79
2021/03/10 00:29:13;;;;;;;;;19.00;19.00;;;;;-1.48;51.26;102208.13;4869380;29;8890;-79
2021/03/10 00:31:41;;;;;;;;;23.33;21.67;;;;;-1.39;51.20;102214.13;4854234;29;8872;-79
2021/03/10 00:34:09;;;;;;;;;34.33;28.00;;;;;-1.53;51.99;102212.53;4853223;29;8927;-79
2021/03/10 00:36:44;;;;;;;;;16.67;16.67;;;;;-1.52;53.03;102209.63;4852300;29;8886;-79
2021/03/10 00:39:15;;;;;;;;;23.00;22.00;;;;;-1.79;53.10;102218.84;4868705;29;8868;-79
2021/03/10 00:41:43;;;;;;;;;10.67;9.33;;;;;-1.53;53.30;102213.38;4868563;29;8985;-79
2021/03/10 00:44:18;;;;;;;;;22.00;22.00;;;;;-1.65;53.62;102212.34;4868172;29;8874;-79
2021/03/10 00:46:46;;;;;;;;;19.67;19.67;;;;;-1.73;53.94;102207.16;4869843;29;8931;-79
2021/03/10 00:49:27;;;;;;;;;25.00;23.33;;;;;-1.58;54.39;102210.47;4869121;29;8864;-79
2021/03/10 00:51:55;;;;;;;;;19.33;19.33;;;;;-1.60;54.13;102214.44;4870197;29;8890;-79
2021/03/10 00:54:45;;;;;;;;;39.00;31.67;;;;;-1.63;54.79;102215.69;4867714;29;8898;-79
2021/03/10 00:57:41;;;;;;;;;21.67;20.67;;;;;-1.80;55.10;102220.72;4869433;29;8879;-79
2021/03/10 01:00:37;;;;;;;;;31.67;23.67;;;;;-1.79;55.86;102229.69;4870517;29;8890;-80
2021/03/10 01:03:32;;;;;;;;;21.33;19.00;;;;;-2.02;56.13;102224.72;4869443;29;8858;-80
2021/03/10 01:06:14;;;;;;;;;28.00;25.00;;;;;-1.88;55.88;102226.38;4854960;29;8872;-80
2021/03/10 01:08:41;;;;;;;;;27.67;24.67;;;;;-1.77;55.83;102227.59;4870007;29;8884;-80
2021/03/10 01:11:10;;;;;;;;;23.33;23.00;;;;;-1.76;56.30;102232.84;4872376;29;8937;-80
2021/03/10 01:13:39;;;;;;;;;19.00;19.00;;;;;-1.86;56.95;102231.59;4871338;29;8903;-80
2021/03/10 01:16:35;;;;;;;;;23.67;21.00;;;;;-1.69;56.46;102221.94;4872743;29;8901;-80
2021/03/10 01:19:30;;;;;;;;;27.33;27.00;;;;;-1.65;56.66;102223.22;4871681;29;8836;-80
2021/03/10 01:21:58;;;;;;;;;22.67;22.67;;;;;-1.71;56.85;102222.16;4873193;29;8977;-80
2021/03/10 01:24:53;;;;;;;;;21.00;21.00;;;;;-1.78;57.30;102223.22;4871740;29;8875;-80
2021/03/10 01:27:49;;;;;;;;;24.33;24.00;;;;;-1.88;57.86;102225.53;4870902;29;8859;-81
2021/03/10 01:30:45;;;;;;;;;24.33;20.67;;;;;-1.99;58.40;102218.91;4870455;29;8858;-81
2021/03/10 01:33:41;;;;;;;;;30.00;28.33;;;;;-1.79;58.43;102222.41;4859539;29;8878;-81
2021/03/10 01:36:11;;;;;;;;;28.67;24.67;;;;;-1.90;58.95;102222.22;4872462;29;8872;-80
2021/03/10 01:38:39;;;;;;;;;22.33;20.67;;;;;-1.80;59.24;102223.44;4858235;29;8872;-80
2021/03/10 01:41:35;;;;;;;;;24.33;24.33;;;;;-1.67;58.50;102222.59;4870865;29;9538;-80
2021/03/10 01:44:31;;;;;;;;;29.00;27.67;;;;;-1.66;58.20;102218.81;4862897;29;9713;-80
2021/03/10 01:47:00;;;;;;;;;24.33;24.33;;;;;-1.67;57.85;102228.03;4871351;29;8954;-80
2021/03/10 01:49:57;;;;;;;;;23.33;18.33;;;;;-1.48;57.20;102221.69;4872917;29;8901;-80
2021/03/10 01:52:55;;;;;;;;;22.67;22.00;;;;;-1.29;55.79;102224.56;4871192;29;8848;-80
2021/03/10 01:55:54;;;;;;;;;19.67;19.67;;;;;-1.20;54.30;102226.81;4864554;29;8908;-80
2021/03/10 01:58:51;;;;;;;;;13.67;13.67;;;;;-1.14;54.42;102231.41;4871302;29;8882;-80
2021/03/10 02:01:47;;;;;;;;;22.33;22.33;;;;;-0.99;53.73;102231.13;4859441;29;8890;-80
2021/03/10 02:04:43;;;;;;;;;20.33;18.67;;;;;-1.01;53.32;102229.66;4871503;29;8878;-80
2021/03/10 02:07:59;;;;;;;;;15.00;13.00;;;;;-0.99;53.45;102235.72;4859130;29;8856;-80
2021/03/10 02:11:09;;;;;;;;;20.67;18.67;;;;;-0.83;53.28;102234.38;4872510;29;8876;-80
2021/03/10 02:14:27;;;;;;;;;15.67;13.33;;;;;-0.90;53.00;102231.69;4871240;29;8898;-80
2021/03/10 02:16:59;;;;;;;;;16.67;16.67;;;;;-0.81;52.99;102235.81;4871339;29;9009;-80
2021/03/10 02:20:05;;;;;;;;;15.33;15.33;;;;;-0.75;52.93;102236.84;4869427;29;8945;-78
2021/03/10 02:22:42;;;;;;;;;19.00;18.00;;;;;-0.73;52.28;102229.31;4855797;29;8901;-80
2021/03/10 02:25:53;;;;;;;;;21.67;20.33;;;;;-0.76;51.20;102236.03;4857667;29;8863;-79
2021/03/10 02:28:51;;;;;;;;;13.00;12.67;;;;;-0.85;51.92;102240.84;4871321;29;8868;-79
2021/03/10 02:31:51;;;;;;;;;19.33;18.67;;;;;-0.81;51.51;102235.00;4872047;29;8860;-79
2021/03/10 02:34:46;;;;;;;;;22.67;22.00;;;;;-0.90;49.87;102237.13;4858289;29;8998;-79
2021/03/10 02:37:17;;;;;;;;;18.33;18.33;;;;;-0.93;48.88;102248.41;4870162;29;9617;-79
2021/03/10 02:39:45;;;;;;;;;14.67;14.67;;;;;-0.94;47.73;102250.31;4877595;29;9611;-79
2021/03/10 02:42:40;;;;;;;;;27.67;27.00;;;;;-0.96;48.17;102252.41;4870057;29;9580;-79
2021/03/10 02:45:37;;;;;;;;;25.67;25.67;;;;;-1.03;48.27;102257.03;4870283;29;8913;-79
2021/03/10 02:48:22;;;;;;;;;25.00;25.00;;;;;-1.08;48.53;102256.84;4869102;29;8887;-79
2021/03/10 02:50:54;;;;;;;;;24.67;21.67;;;;;-1.05;48.23;102255.59;4871851;29;8888;-79
2021/03/10 02:53:52;;;;;;;;;18.67;18.33;;;;;-1.22;47.85;102264.22;4856752;29;8878;-79
2021/03/10 02:56:47;;;;;;;;;24.00;22.67;;;;;-1.15;47.72;102256.03;4873880;29;8928;-80
2021/03/10 02:59:45;;;;;;;;;7.67;7.67;;;;;-1.12;47.81;102263.75;4868315;29;8958;-79
2021/03/10 03:02:41;;;;;;;;;15.00;15.00;;;;;-1.10;47.39;102261.66;4870358;29;9609;-80
2021/03/10 03:05:37;;;;;;;;;9.00;9.00;;;;;-1.26;47.62;102264.84;4869172;29;8976;-80
2021/03/10 03:08:06;;;;;;;;;12.00;12.00;;;;;-1.28;46.85;102264.25;4871361;29;8899;-79
2021/03/10 03:11:05;;;;;;;;;11.33;11.33;;;;;-1.16;47.07;102268.78;4867900;29;8903;-79
2021/03/10 03:13:34;;;;;;;;;9.00;9.00;;;;;-1.39;46.12;102263.00;4874145;29;9002;-78
2021/03/10 03:16:06;;;;;;;;;10.00;10.00;;;;;-1.25;46.39;102274.66;4855270;29;8845;-79
2021/03/10 03:18:35;;;;;;;;;10.00;9.00;;;;;-1.38;46.01;102270.13;4854322;29;8860;-79
2021/03/10 03:21:05;;;;;;;;;15.00;15.00;;;;;-1.34;45.89;102271.34;4873393;29;8870;-79
2021/03/10 03:24:18;;;;;;;;;8.67;8.67;;;;;-1.36;45.66;102269.91;4858614;29;8862;-79
2021/03/10 03:26:47;;;;;;;;;6.67;6.00;;;;;-1.38;45.75;102263.81;4869252;29;8878;-79
2021/03/10 03:29:43;;;;;;;;;1.67;1.67;;;;;-1.28;45.92;102264.25;4874746;29;8888;-79
2021/03/10 03:32:40;;;;;;;;;8.33;8.33;;;;;-1.34;45.69;102265.91;4868961;29;9571;-79
2021/03/10 03:35:09;;;;;;;;;10.00;7.00;;;;;-1.24;45.11;102271.72;4870755;29;8898;-79
2021/03/10 03:37:55;;;;;;;;;7.00;7.00;;;;;-1.17;44.65;102272.53;4863390;29;8864;-79
2021/03/10 03:40:53;;;;;;;;;9.67;9.00;;;;;-1.15;45.13;102265.03;4855663;29;8970;-79
2021/03/10 03:43:49;;;;;;;;;11.33;8.33;;;;;-1.24;45.10;102271.72;4867819;29;9012;-80
2021/03/10 03:46:45;;;;;;;;;9.67;9.67;;;;;-1.22;45.28;102276.97;4870672;29;8870;-79
2021/03/10 03:49:46;;;;;;;;;17.33;15.00;;;;;-1.07;45.58;102279.38;4868257;29;8880;-80
2021/03/10 03:52:43;;;;;;;;;9.00;9.00;;;;;-1.15;45.33;102273.19;4869272;29;8870;-80
2021/03/10 03:55:39;;;;;;;;;12.33;12.33;;;;;-1.21;44.51;102281.34;4869628;29;8955;-80
2021/03/10 03:58:22;;;;;;;;;6.00;6.00;;;;;-1.13;44.25;102278.38;4855155;29;9688;-78
2021/03/10 04:01:19;;;;;;;;;55.50;48.00;;;;;-1.04;44.53;102278.97;4868726;29;8913;-78
2021/03/10 04:04:14;;;;;;;;;30.33;30.33;;;;;-1.15;44.95;102277.75;4869276;29;9015;-78
2021/03/10 04:07:10;;;;;;;;;65.00;49.75;;;;;-1.05;45.35;102283.59;4870752;29;8917;-78
2021/03/10 04:09:58;;;;;;;;;83.50;64.75;;;;;-1.07;45.12;102280.25;4868987;29;8899;-78
2021/03/10 04:12:35;;;;;;;;;27.00;24.67;;;;;-1.00;44.89;102282.91;4854696;29;8893;-79
2021/03/10 04:15:34;;;;;;;;;21.33;20.33;;;;;-1.00;44.91;102281.03;4869928;29;8891;-79
2021/03/10 04:18:04;;;;;;;;;8.33;8.33;;;;;-1.06;44.59;102271.06;4869639;29;9623;-80
2021/03/10 04:20:45;;;;;;;;;15.00;15.00;;;;;-1.00;44.22;102272.88;4853031;29;8888;-80
2021/03/10 04:23:13;;;;;;;;;24.67;24.67;;;;;-0.88;44.42;102276.59;4854152;29;8884;-80
2021/03/10 04:25:57;;;;;;;;;33.67;31.67;;;;;-0.94;44.52;102282.06;4856037;29;8876;-80
2021/03/10 04:28:52;;;;;;;;;15.67;14.33;;;;;-1.00;44.14;102283.75;4867807;29;8871;-80
2021/03/10 04:31:48;;;;;;;;;12.00;12.00;;;;;-1.10;44.92;102288.81;4869212;29;8886;-79
2021/03/10 04:34:16;;;;;;;;;12.33;12.33;;;;;-0.98;44.25;102295.25;4837030;29;8973;-80
2021/03/10 04:37:12;;;;;;;;;16.67;16.67;;;;;-0.88;45.07;102294.78;4869338;29;8880;-80
2021/03/10 04:39:39;;;;;;;;;61.67;49.00;;;;;-0.73;45.31;102299.94;4870466;29;8979;-80
2021/03/10 04:42:08;;;;;;;;;20.33;18.00;;;;;-0.60;45.29;102306.16;4853652;29;9602;-80
2021/03/10 04:44:43;;;;;;;;;24.00;21.67;;;;;-0.58;45.11;102300.50;4870614;29;8874;-80
2021/03/10 04:47:11;;;;;;;;;17.67;17.00;;;;;-0.53;44.58;102310.72;4871916;29;8894;-81
2021/03/10 04:49:54;;;;;;;;;36.00;33.00;;;;;-0.64;44.93;102317.66;4871491;29;8947;-81
2021/03/10 04:52:50;;;;;;;;;28.00;26.33;;;;;-0.64;45.01;102315.78;4873195;29;9546;-80
2021/03/10 04:55:19;;;;;;;;;21.00;21.00;;;;;-0.63;45.06;102317.44;4871988;29;8868;-79
2021/03/10 04:58:01;;;;;;;;;33.67;32.33;;;;;-0.52;45.16;102315.94;4871914;29;8882;-80
2021/03/10 05:00:56;;;;;;;;;18.67;18.33;;;;;-0.63;44.63;102322.03;4875564;29;9696;-80
2021/03/10 05:03:53;;;;;;;;;27.67;26.33;;;;;-0.48;44.45;102327.19;4859439;29;8870;-80
2021/03/10 05:06:35;;;;;;;;;15.33;13.67;;;;;-0.51;43.81;102320.31;4870703;29;8871;-81
2021/03/10 05:09:16;;;;;;;;;12.00;12.00;;;;;-0.49;43.60;102318.22;4858762;29;8949;-80
2021/03/10 05:11:44;;;;;;;;;16.00;16.00;;;;;-0.47;43.94;102320.72;4872669;29;8857;-81
2021/03/10 05:14:41;;;;;;;;;6.67;6.67;;;;;-0.48;43.19;102325.31;4861128;29;9601;-80
2021/03/10 05:17:12;;;;;;;;;14.33;12.67;;;;;-0.57;42.96;102321.19;4871288;29;8899;-81
2021/03/10 05:19:41;;;;;;;;;21.00;18.00;;;;;-0.30;43.14;102320.00;4873476;29;9023;-81
2021/03/10 05:22:11;;;;;;;;;22.33;22.33;;;;;-0.27;42.33;102318.72;4873151;29;8871;-80
2021/03/10 05:24:40;;;;;;;;;27.33;27.33;;;;;-0.18;42.60;102319.28;4871679;29;8867;-75
2021/03/10 05:27:06;;;;;;;;;23.33;19.33;;;;;-0.29;42.02;102324.38;4857172;29;8880;-80
2021/03/10 05:29:43;;;;;;;;;67.00;48.00;;;;;-0.17;42.74;102329.94;4875620;29;8860;-80
2021/03/10 05:32:38;;;;;;;;;15.33;15.33;;;;;-0.16;42.23;102328.88;4870905;29;8864;-80
2021/03/10 05:35:07;;;;;;;;;10.00;10.00;;;;;0.01;42.49;102333.81;4873507;29;8894;-79
2021/03/10 05:38:02;;;;;;;;;11.33;11.33;;;;;-0.32;40.97;102330.22;4872143;29;8878;-80
2021/03/10 05:40:59;;;;;;;;;9.33;7.67;;;;;-0.24;40.75;102337.31;4871999;29;8884;-80
2021/03/10 05:43:57;;;;;;;;;9.00;9.00;;;;;-0.18;41.55;102350.03;4872019;29;8887;-80
2021/03/10 05:46:54;;;;;;;;;9.67;9.67;;;;;0.03;40.92;102353.47;4872372;29;8959;-77
2021/03/10 05:49:40;;;;;;;;;18.67;14.67;;;;;0.13;40.40;102357.34;4873141;29;8951;-80
2021/03/10 05:52:38;;;;;;;;;10.67;10.00;;;;;-0.01;39.72;102359.31;4869478;29;8900;-80
2021/03/10 05:55:33;;;;;;;;;6.33;6.33;;;;;-0.13;38.98;102371.16;4871343;29;8890;-80
2021/03/10 05:58:11;;;;;;;;;7.00;7.00;;;;;0.05;39.30;102365.78;4871110;29;8862;-79
2021/03/10 06:01:08;;;;;;;;;7.00;7.00;;;;;0.26;38.81;102375.47;4878843;29;8916;-80
2021/03/10 06:04:06;;;;;;;;;12.00;6.00;;;;;0.38;39.06;102368.25;4874835;29;8862;-79
2021/03/10 06:07:02;;;;;;;;;9.33;9.33;;;;;0.22;37.96;102382.41;4871477;29;8871;-79
2021/03/10 06:10:03;;;;;;;;;15.33;15.33;;;;;0.60;38.28;102376.03;4873380;29;8885;-79
2021/03/10 06:13:00;;;;;;;;;4.00;4.00;;;;;0.45;36.69;102374.47;4851986;29;8876;-79
2021/03/10 06:15:58;;;;;;;;;7.00;7.00;;;;;0.63;37.34;102383.75;4871153;29;8859;-80
2021/03/10 06:18:35;;;;;;;;;12.33;10.00;;;;;0.89;37.06;102378.03;4843359;29;8966;-80
2021/03/10 06:21:14;;;;;;;;;6.33;6.33;;;;;0.95;37.63;102382.59;4860834;29;8931;-79
2021/03/10 06:24:08;;;;;;;;;15.67;15.67;;;;;0.82;37.39;102386.28;4871167;29;8878;-79
2021/03/10 06:26:54;;;;;;;;;19.67;19.67;;;;;0.85;37.53;102384.19;4871203;29;8878;-80
2021/03/10 06:29:24;;;;;;;;;8.33;8.33;;;;;0.69;37.68;102386.44;4860807;29;8890;-79
2021/03/10 06:32:20;;;;;;;;;11.33;11.33;;;;;0.77;37.66;102377.13;4872941;29;8864;-80
2021/03/10 06:34:50;;;;;;;;;9.00;8.33;;;;;1.11;38.00;102383.91;4857377;29;8958;-79
2021/03/10 06:37:32;;;;;;;;;17.67;17.67;;;;;1.05;36.81;102390.25;4873985;29;8880;-80
2021/03/10 06:40:14;;;;;;;;;0.00;0.00;;;;;1.12;37.84;102396.47;4872192;29;8853;-79
2021/03/10 06:42:53;;;;;;;;;8.33;8.33;;;;;1.45;36.84;102387.88;4871990;29;12387;-79
2021/03/10 06:45:32;;;;;;;;;7.00;7.00;;;;;0.94;36.74;102391.84;4873606;29;11724;-79
2021/03/10 06:48:00;;;;;;;;;40.33;38.33;;;;;1.14;36.70;102394.34;4853790;29;8885;-79
2021/03/10 06:50:35;;;;;;;;;22.33;21.33;;;;;0.82;36.60;102385.44;4857435;29;8963;-79
2021/03/10 06:53:07;;;;;;;;;37.33;36.33;;;;;1.21;36.57;102388.81;4855734;29;8872;-78
2021/03/10 06:56:03;;;;;;;;;12.67;12.33;;;;;1.43;36.95;102397.38;4856099;29;8895;-79
2021/03/10 06:59:04;;;;;;;;;8.67;8.00;;;;;1.16;35.90;102394.97;4856837;29;8889;-78
2021/03/10 07:01:48;;;;;;;;;5.00;5.00;;;;;1.39;36.11;102403.28;4871136;29;8990;-78
2021/03/10 07:04:16;;;;;;;;;11.00;11.00;;;;;1.71;36.44;102402.28;4870979;29;8910;-78
2021/03/10 07:07:14;;;;;;;;;16.00;16.00;;;;;1.72;37.05;102398.47;4857266;29;9002;-80
2021/03/10 07:10:10;;;;;;;;;20.67;20.67;;;;;1.50;36.20;102398.97;4869748;29;8989;-78
2021/03/10 07:12:59;;;;;;;;;10.67;10.67;;;;;1.29;36.74;102397.50;4857263;29;8868;-79
2021/03/10 07:15:31;;;;;;;;;8.00;7.00;;;;;1.13;36.27;102402.75;4856056;29;12446;-79
2021/03/10 07:18:28;;;;;;;;;4.33;4.33;;;;;1.43;38.13;102400.94;4857150;29;8898;-78
2021/03/10 07:20:57;;;;;;;;;7.33;7.33;;;;;1.54;36.23;102400.19;4870383;29;8880;-79
2021/03/10 07:23:31;;;;;;;;;7.00;6.33;;;;;1.21;35.88;102395.09;4871241;29;8872;-78
2021/03/10 07:26:02;;;;;;;;;6.33;6.33;;;;;1.44;36.17;102393.56;4871946;29;8942;-79
2021/03/10 07:28:33;;;;;;;;;8.00;8.00;;;;;1.63;36.52;102393.34;4869746;29;8886;-79
2021/03/10 07:31:02;;;;;;;;;7.00;7.00;;;;;2.03;35.96;102392.78;4852521;29;8923;-79
2021/03/10 07:33:34;;;;;;;;;8.00;8.00;;;;;1.82;36.04;102402.31;4869647;29;9008;-79
2021/03/10 07:36:04;;;;;;;;;9.33;7.67;;;;;1.74;36.37;102399.91;4871620;29;11622;-80
2021/03/10 07:38:41;;;;;;;;;4.33;4.33;;;;;2.07;36.27;102398.59;4870654;29;11668;-78
2021/03/10 07:41:14;;;;;;;;;11.00;10.00;;;;;2.15;36.67;102398.28;4852624;29;11644;-79
2021/03/10 07:44:25;;;;;;;;;7.33;7.33;;;;;1.97;35.36;102403.78;4868043;29;12410;-79
2021/03/10 07:47:21;;;;;;;;;4.67;4.67;;;;;2.27;35.25;102395.59;4857133;29;11877;-77
2021/03/10 07:50:17;;;;;;;;;7.33;7.33;;;;;1.97;35.62;102401.06;4868882;29;11692;-77
2021/03/10 07:53:12;;;;;;;;;7.00;7.00;;;;;1.94;34.99;102394.19;4868211;29;8863;-78
2021/03/10 07:56:08;;;;;;;;;12.33;6.33;;;;;1.88;34.89;102395.09;4869051;29;11692;-78
2021/03/10 07:59:08;;;;;;;;;6.33;6.33;;;;;1.68;35.71;102384.44;4869736;29;11736;-78
2021/03/10 08:02:09;;;;;;;;;5.67;5.67;;;;;1.95;35.54;102395.84;4868400;29;11859;-79
2021/03/10 08:04:39;;;;;;;;;7.00;7.00;;;;;2.13;35.54;102384.84;4869445;29;11700;-79
2021/03/10 08:07:33;;;;;;;;;13.00;13.00;;;;;2.51;36.88;102389.09;4868655;29;11753;-79
2021/03/10 08:10:02;;;;;;;;;8.00;7.33;;;;;2.62;34.81;102393.75;4869599;29;11700;-80
2021/03/10 08:12:37;;;;;;;;;7.00;7.00;;;;;2.48;34.79;102395.03;4860712;29;11655;-79
2021/03/10 08:15:07;;;;;;;;;7.25;7.25;;;;;2.65;35.08;102387.81;4872634;29;11670;-79
2021/03/10 08:17:35;;;;;;;;;5.00;5.00;;;;;2.70;34.47;102382.47;4854018;29;11653;-78
2021/03/10 08:20:06;;;;;;;;;10.67;10.67;;;;;2.81;34.83;102379.97;4875741;29;11763;-79
2021/03/10 08:22:34;;;;;;;;;11.50;11.50;;;;;3.01;35.23;102374.97;4858270;29;11774;-78
2021/03/10 08:25:06;;;;;;;;;5.50;5.50;;;;;2.97;33.61;102371.03;4860369;29;11728;-79
2021/03/10 08:27:40;;;;;;;;;7.75;7.75;;;;;2.90;34.32;102373.06;4861174;29;11730;-79
2021/03/10 08:30:15;;;;;;;;;8.50;8.50;;;;;3.17;35.42;102370.69;4875373;29;11647;-78
2021/03/10 08:33:05;;;;;;;;;6.25;6.25;;;;;3.59;34.06;102374.00;4874852;29;11780;-78
2021/03/10 08:35:34;;;;;;;;;4.75;4.75;;;;;2.45;33.47;102369.03;4859841;29;11670;-80
2021/03/10 08:38:11;;;;;;;;;7.25;5.00;;;;;2.75;34.45;102370.81;4861236;29;11658;-78
2021/03/10 08:40:39;;;;;;;;;9.00;9.00;;;;;2.91;34.54;102367.34;4876844;29;11659;-79
2021/03/10 08:43:36;;;;;;;;;8.50;8.50;;;;;2.68;34.50;102370.94;4875309;29;11759;-79
2021/03/10 08:46:45;;;;;;;;;4.25;4.25;;;;;2.81;34.81;102364.41;4874030;29;11650;-79
2021/03/10 08:49:32;;;;;;;;;7.00;6.50;;;;;2.95;34.41;102368.56;4875284;29;11648;-79
2021/03/10 08:52:08;;;;;;;;;8.00;8.00;;;;;3.24;34.10;102364.00;5358917;23;11694;-71
2021/03/10 08:54:54;;;;;;;;;7.00;7.00;;;;;3.28;34.21;102365.16;4868654;29;12509;-71
2021/03/10 08:57:50;;;;;;;;;25.67;21.67;;;;;3.60;34.61;102360.09;4853038;29;11655;-71
2021/03/10 09:00:46;;;;;;;;;5.00;5.00;;;;;3.73;34.21;102358.13;4854995;29;11807;-70
2021/03/10 09:03:45;;;;;;;;;8.00;8.00;;;;;3.53;33.41;102353.94;4864096;29;11646;-70
2021/03/10 09:06:42;;;;;;;;;8.50;5.75;;;;;3.24;33.97;102363.19;4876917;29;11648;-71
2021/03/10 09:09:38;;;;;;;;;13.50;11.75;;;;;3.99;34.75;102351.22;4865213;29;11703;-71
2021/03/10 09:12:38;;;;;;;;;14.75;13.25;;;;;4.06;33.45;102346.41;4882130;29;11780;-72
2021/03/10 09:15:34;;;;;;;;;12.75;11.00;;;;;4.32;34.95;102347.69;4884000;29;11696;-70
2021/03/10 09:18:34;;;;;;;;;4.50;4.50;;;;;3.80;33.28;102351.44;4883986;29;11659;-70
2021/03/10 09:21:40;;;;;;;;;11.75;10.00;;;;;3.98;34.02;102355.03;4865267;29;11674;-70
2021/03/10 09:24:58;;;;;;;;;5.50;5.50;;;;;4.09;33.86;102351.41;4884018;29;11773;-70
2021/03/10 09:28:15;;;;;;;;;7.50;7.50;;;;;4.48;33.42;102355.09;4883675;29;11669;-71
2021/03/10 09:31:14;;;;;;;;;9.00;8.00;;;;;4.65;33.48;102352.34;4867938;29;11759;-71
2021/03/10 09:34:13;;;;;;;;;5.00;5.00;;;;;4.53;33.08;102349.69;4880832;29;11657;-70
2021/03/10 09:37:12;;;;;;;;;27.00;26.00;;;;;4.58;32.61;102343.44;4880643;29;11803;-71
2021/03/10 09:40:09;;;;;;;;;9.00;9.00;;;;;4.64;31.30;102342.44;4868294;29;12532;-71
2021/03/10 09:43:09;;;;;;;;;8.25;8.25;;;;;4.78;32.57;102348.41;4867915;29;11642;-70
2021/03/10 09:46:08;;;;;;;;;7.75;7.75;;;;;4.65;31.28;102339.47;4880283;29;11652;-69
2021/03/10 09:49:04;;;;;;;;;9.75;9.75;;;;;4.83;31.56;102343.00;4877999;29;11670;-70
2021/03/10 09:51:59;;;;;;;;;8.25;8.00;;;;;4.96;32.13;102346.22;4872571;29;11674;-71
2021/03/10 09:54:55;;;;;;;;;7.00;7.00;;;;;5.00;31.69;102349.28;4862601;29;11636;-72
2021/03/10 09:58:01;;;;;;;;;9.00;9.00;;;;;5.13;31.41;102337.94;4872574;29;11624;-72
2021/03/10 10:01:01;;;;;;;;;6.67;6.00;;;;;5.21;32.28;102340.25;4860699;29;11625;-71
2021/03/10 10:03:58;;;;;;;;;7.00;7.00;;;;;5.02;32.89;102333.41;4861040;29;11654;-71
2021/03/10 10:06:55;;;;;;;;;7.50;7.50;;;;;5.52;33.03;102333.22;4862319;29;11709;-71
2021/03/10 10:09:52;;;;;;;;;8.50;8.50;;;;;5.94;31.05;102338.09;4862540;29;11640;-71
2021/03/10 10:12:50;;;;;;;;;8.00;8.00;;;;;6.25;31.46;102335.63;4862033;29;11623;-72
2021/03/10 10:15:45;;;;;;;;;4.25;4.25;;;;;5.57;30.31;102335.19;4862160;29;11798;-71
2021/03/10 10:18:41;;;;;;;;;7.00;7.00;;;;;5.66;31.52;102330.88;4862047;29;12400;-72
2021/03/10 10:21:37;;;;;;;;;13.50;12.50;;;;;5.77;31.00;102327.19;4861745;29;11676;-71
2021/03/10 10:24:33;;;;;;;;;5.75;5.75;;;;;5.42;31.63;102318.53;4862148;29;11745;-72
2021/03/10 10:27:28;;;;;;;;;4.00;4.00;;;;;5.02;31.14;102316.94;4860558;29;11713;-71
2021/03/10 10:30:24;;;;;;;;;19.25;10.50;;;;;5.75;30.65;102320.25;4860476;29;11660;-71
2021/03/10 10:33:19;;;;;;;;;5.50;5.50;;;;;6.21;30.40;102315.22;4860508;29;11679;-72
2021/03/10 10:36:15;;;;;;;;;11.75;11.75;;;;;6.07;29.71;102309.38;4861882;29;11643;-72
2021/03/10 10:39:10;;;;;;;;;9.50;6.00;;;;;6.12;29.17;102312.16;4861938;29;11720;-72
2021/03/10 10:42:06;;;;;;;;;10.25;10.25;;;;;6.35;30.29;102305.47;4860282;29;11751;-71
2021/03/10 10:45:05;;;;;;;;;10.00;10.00;;;;;6.46;31.12;102307.22;4871718;29;11677;-72
2021/03/10 10:48:00;;;;;;;;;4.50;4.50;;;;;6.43;30.04;102309.66;4861554;29;11678;-71
2021/03/10 10:50:56;;;;;;;;;2.75;2.75;;;;;6.35;29.47;102302.72;4861497;29;11774;-71
2021/03/10 10:53:52;;;;;;;;;11.50;11.50;;;;;6.68;30.80;102302.41;4861430;29;11752;-71
2021/03/10 10:56:47;;;;;;;;;13.25;13.00;;;;;6.63;30.80;102307.03;4862391;29;11780;-71
2021/03/10 10:59:43;;;;;;;;;5.25;5.25;;;;;6.60;29.09;102305.66;4861512;29;12473;-71
2021/03/10 11:02:38;;;;;;;;;5.50;5.50;;;;;6.64;29.93;102297.69;4858620;29;11773;-71
2021/03/10 11:05:34;;;;;;;;;5.75;5.75;;;;;6.65;28.43;102288.34;4867788;29;11777;-71
2021/03/10 11:08:30;;;;;;;;;6.00;6.00;;;;;6.94;30.21;102288.78;4869399;29;11668;-71
2021/03/10 11:11:25;;;;;;;;;5.50;5.50;;;;;6.75;28.47;102282.94;4870789;29;12394;-71
2021/03/10 11:14:21;;;;;;;;;9.00;9.00;;;;;6.92;29.63;102283.56;4870863;29;11610;-71
2021/03/10 11:17:17;;;;;;;;;6.00;6.00;;;;;7.27;29.08;102275.72;4868603;29;11660;-74
2021/03/10 11:20:14;;;;;;;;;4.75;4.50;;;;;6.94;28.88;102278.63;4869787;29;11638;-75
2021/03/10 11:23:09;;;;;;;;;6.00;6.00;;;;;6.54;29.37;102270.97;4868537;29;11646;-75
2021/03/10 11:26:05;;;;;;;;;38.25;36.50;;;;;6.75;29.76;102262.84;4867368;29;11654;-73
2021/03/10 11:29:00;;;;;;;;;10.00;10.00;;;;;7.23;30.31;102267.19;4867814;29;11729;-73
2021/03/10 11:31:56;;;;;;;;;9.50;9.50;;;;;7.47;29.57;102264.78;4868353;29;11728;-74
2021/03/10 11:34:51;;;;;;;;;10.00;9.50;;;;;7.40;29.75;102261.47;4869022;29;11672;-73
2021/03/10 11:37:47;;;;;;;;;5.25;5.25;;;;;7.34;28.76;102260.59;4868687;29;11693;-74
2021/03/10 11:40:43;;;;;;;;;6.00;6.00;;;;;7.59;28.83;102259.88;4869056;29;11654;-72
2021/03/10 11:43:39;;;;;;;;;3.00;3.00;;;;;7.50;29.80;102259.53;4869148;29;11682;-72
2021/03/10 11:46:34;;;;;;;;;3.00;3.00;;;;;7.62;28.84;102250.22;4871316;29;11594;-71
2021/03/10 11:49:30;;;;;;;;;7.00;7.00;;;;;8.17;28.86;102243.91;4868901;29;11781;-71
2021/03/10 11:52:26;;;;;;;;;6.25;6.25;;;;;7.08;28.58;102242.38;4857400;29;12488;-71
2021/03/10 11:55:21;;;;;;;;;5.75;5.75;;;;;7.78;28.83;102235.38;4867926;29;11668;-71
2021/03/10 11:58:18;;;;;;;;;4.50;4.50;;;;;7.86;28.38;102225.72;4869497;29;11663;-71
2021/03/10 12:01:14;;;;;;;;;6.00;6.00;;;;;7.48;28.44;102225.97;4868353;29;11699;-70
2021/03/10 12:04:10;;;;;;;;;9.25;9.25;;;;;7.68;29.04;102230.69;4867275;29;11666;-72
2021/03/10 12:07:07;;;;;;;;;3.00;3.00;;;;;7.89;28.67;102228.75;4868726;29;11653;-72
2021/03/10 12:10:03;;;;;;;;;13.25;7.75;;;;;7.52;28.38;102213.31;4857841;29;11604;-71
2021/03/10 12:12:58;;;;;;;;;7.25;6.25;;;;;6.79;30.21;102201.53;4863898;29;11705;-71
2021/03/10 12:15:38;;;;;;;;;6.00;6.00;;;;;6.96;29.68;102210.41;4862012;29;11634;-72
2021/03/10 12:18:09;;;;;;;;;8.25;8.25;;;;;7.04;28.73;102205.47;4859780;29;11687;-71
2021/03/10 12:20:37;;;;;;;;;9.50;9.50;;;;;6.95;29.26;102211.50;4876322;29;11682;-72
2021/03/10 12:23:09;;;;;;;;;7.75;7.75;;;;;6.80;29.15;102208.69;4874310;29;12468;-71
2021/03/10 12:25:37;;;;;;;;;14.50;13.25;;;;;6.85;28.94;102207.91;4868055;29;12458;-71
2021/03/10 12:28:26;;;;;;;;;10.00;10.00;;;;;7.01;29.97;102208.78;4853244;29;12373;-71
2021/03/10 12:30:55;;;;;;;;;5.75;5.75;;;;;6.75;29.89;102208.69;4868285;29;11693;-70
2021/03/10 12:33:27;;;;;;;;;6.00;6.00;;;;;6.62;29.60;102201.75;4852448;29;11677;-71
2021/03/10 12:35:55;;;;;;;;;3.50;3.50;;;;;7.01;29.62;102195.03;4870701;29;11661;-71
2021/03/10 12:38:23;;;;;;;;;5.25;5.25;;;;;6.90;29.02;102192.25;4870511;29;11681;-72
2021/03/10 12:40:52;;;;;;;;;6.00;6.00;;;;;7.28;29.20;102200.31;4868509;29;11675;-72
2021/03/10 12:43:20;;;;;;;;;9.25;6.75;;;;;7.31;28.98;102199.78;4868706;29;11818;-72
2021/03/10 12:45:48;;;;;;;;;10.75;10.75;;;;;7.47;28.46;102193.19;4867482;29;11852;-72
2021/03/10 12:48:29;;;;;;;;;3.50;3.50;;;;;7.92;26.89;102186.06;4859549;29;11679;-72
2021/03/10 12:50:59;;;;;;;;;1.50;1.50;;;;;7.93;28.05;102193.22;4876042;29;11699;-72
2021/03/10 12:53:55;;;;;;;;;10.50;10.50;;;;;7.88;29.03;102191.28;4862808;29;11645;-72
2021/03/10 12:56:38;;;;;;;;;6.75;6.00;;;;;7.48;28.11;102192.94;4876519;29;11724;-72
2021/03/10 12:59:34;;;;;;;;;9.50;9.50;;;;;7.28;28.08;102192.88;4875620;29;11641;-71